sensor_id;sensor_type;location;lat;lon;timestamp;temperature;humidity
18406;DHT22;9329;48.720;9.588;2022-09-25T00:01:09;16.20;99.90
18406;DHT22;9329;48.720;9.588;2022-09-25T00:03:36;16.10;99.90
18406;DHT22;9329;48.720;9.588;2022-09-25T00:06:06;16.40;99.90
18406;DHT22;9329;48.720;9.588;2022-09-25T00:08:34;16.40;99.90
18406;DHT22;9329;48.720;9.588;2022-09-25T00:11:05;16.00;99.90
18406;DHT22;9329;48.720;9.588;2022-09-25T00:13:32;15.90;99.90
18406;DHT22;9329;48.720;9.588;2022-09-25T00:16:01;16.20;99.90
18406;DHT22;9329;48.720;9.588;2022-09-25T00:18:28;16.10;99.90
18406;DHT22;9329;48.720;9.588;2022-09-25T00:21:15;15.60;99.90
18406;DHT22;9329;48.720;9.588;2022-09-25T00:23:43;15.40;99.90
18406;DHT22;9329;48.720;9.588;2022-09-25T00:26:12;15.50;99.90
18406;DHT22;9329;48.720;9.588;2022-09-25T00:28:40;15.60;99.90
18406;DHT22;9329;48.720;9.588;2022-09-25T00:31:09;15.60;99.90
18406;DHT22;9329;48.720;9.588;2022-09-25T00:33:39;15.70;99.90
18406;DHT22;9329;48.720;9.588;2022-09-25T00:36:08;15.60;99.90
18406;DHT22;9329;48.720;9.588;2022-09-25T00:38:37;15.50;99.90
18406;DHT22;9329;48.720;9.588;2022-09-25T00:41:05;15.60;99.90
18406;DHT22;9329;48.720;9.588;2022-09-25T00:43:35;15.60;99.90
18406;DHT22;9329;48.720;9.588;2022-09-25T00:46:07;15.50;99.90
18406;DHT22;9329;48.720;9.588;2022-09-25T00:48:37;15.70;99.90
18406;DHT22;9329;48.720;9.588;2022-09-25T00:51:05;15.90;99.90
18406;DHT22;9329;48.720;9.588;2022-09-25T00:53:35;16.10;99.90
18406;DHT22;9329;48.720;9.588;2022-09-25T00:56:06;16.10;99.90
18406;DHT22;9329;48.720;9.588;2022-09-25T00:58:36;16.20;99.90
18406;DHT22;9329;48.720;9.588;2022-09-25T01:01:06;16.40;99.90
18406;DHT22;9329;48.720;9.588;2022-09-25T01:03:33;16.40;99.90
18406;DHT22;9329;48.720;9.588;2022-09-25T01:06:02;16.10;99.90
18406;DHT22;9329;48.720;9.588;2022-09-25T01:08:30;16.10;99.90
18406;DHT22;9329;48.720;9.588;2022-09-25T01:10:57;15.80;99.90
18406;DHT22;9329;48.720;9.588;2022-09-25T01:13:25;15.80;99.90
18406;DHT22;9329;48.720;9.588;2022-09-25T01:15:57;15.70;99.90
18406;DHT22;9329;48.720;9.588;2022-09-25T01:18:39;15.30;99.90
18406;DHT22;9329;48.720;9.588;2022-09-25T01:21:18;15.30;99.90
18406;DHT22;9329;48.720;9.588;2022-09-25T01:27:11;15.40;99.90
18406;DHT22;9329;48.720;9.588;2022-09-25T01:29:44;15.40;99.90
18406;DHT22;9329;48.720;9.588;2022-09-25T01:32:19;15.30;99.90
18406;DHT22;9329;48.720;9.588;2022-09-25T01:34:51;15.50;99.90
18406;DHT22;9329;48.720;9.588;2022-09-25T01:37:25;15.40;99.90
18406;DHT22;9329;48.720;9.588;2022-09-25T01:40:01;15.20;99.90
18406;DHT22;9329;48.720;9.588;2022-09-25T01:42:37;15.20;99.90
18406;DHT22;9329;48.720;9.588;2022-09-25T01:45:10;14.90;99.90
18406;DHT22;9329;48.720;9.588;2022-09-25T01:47:41;15.10;99.90
18406;DHT22;9329;48.720;9.588;2022-09-25T01:50:14;15.30;99.90
18406;DHT22;9329;48.720;9.588;2022-09-25T01:52:46;15.30;99.90
18406;DHT22;9329;48.720;9.588;2022-09-25T01:55:19;15.70;99.90
18406;DHT22;9329;48.720;9.588;2022-09-25T01:57:51;15.70;99.90
18406;DHT22;9329;48.720;9.588;2022-09-25T02:00:21;15.70;99.90
18406;DHT22;9329;48.720;9.588;2022-09-25T02:02:54;15.50;99.90
18406;DHT22;9329;48.720;9.588;2022-09-25T02:05:25;15.40;99.90
18406;DHT22;9329;48.720;9.588;2022-09-25T02:07:59;15.60;99.90
18406;DHT22;9329;48.720;9.588;2022-09-25T02:10:33;15.30;99.90
18406;DHT22;9329;48.720;9.588;2022-09-25T02:13:06;15.00;99.90
18406;DHT22;9329;48.720;9.588;2022-09-25T02:15:39;15.20;99.90
18406;DHT22;9329;48.720;9.588;2022-09-25T02:18:11;15.20;99.90
18406;DHT22;9329;48.720;9.588;2022-09-25T02:21:00;15.40;99.90
18406;DHT22;9329;48.720;9.588;2022-09-25T02:23:35;15.80;99.90
18406;DHT22;9329;48.720;9.588;2022-09-25T02:26:11;16.00;99.90
18406;DHT22;9329;48.720;9.588;2022-09-25T02:28:41;15.90;99.90
18406;DHT22;9329;48.720;9.588;2022-09-25T02:31:11;15.50;99.90
18406;DHT22;9329;48.720;9.588;2022-09-25T02:33:41;15.60;99.90
18406;DHT22;9329;48.720;9.588;2022-09-25T02:36:16;15.90;99.90
18406;DHT22;9329;48.720;9.588;2022-09-25T02:38:43;16.00;99.90
18406;DHT22;9329;48.720;9.588;2022-09-25T02:41:17;16.00;99.90
18406;DHT22;9329;48.720;9.588;2022-09-25T02:43:53;15.90;99.90
18406;DHT22;9329;48.720;9.588;2022-09-25T02:46:29;16.00;99.90
18406;DHT22;9329;48.720;9.588;2022-09-25T02:49:01;16.00;99.90
18406;DHT22;9329;48.720;9.588;2022-09-25T02:51:36;16.10;99.90
18406;DHT22;9329;48.720;9.588;2022-09-25T02:54:11;16.40;99.90
18406;DHT22;9329;48.720;9.588;2022-09-25T02:56:42;16.10;99.90
18406;DHT22;9329;48.720;9.588;2022-09-25T02:59:14;15.70;99.90
18406;DHT22;9329;48.720;9.588;2022-09-25T03:01:46;15.70;99.90
18406;DHT22;9329;48.720;9.588;2022-09-25T03:04:15;15.70;99.90
18406;DHT22;9329;48.720;9.588;2022-09-25T03:06:43;15.60;99.90
18406;DHT22;9329;48.720;9.588;2022-09-25T03:09:12;15.80;99.90
18406;DHT22;9329;48.720;9.588;2022-09-25T03:11:39;15.50;99.90
18406;DHT22;9329;48.720;9.588;2022-09-25T03:14:08;15.10;99.90
18406;DHT22;9329;48.720;9.588;2022-09-25T03:16:40;15.00;99.90
18406;DHT22;9329;48.720;9.588;2022-09-25T03:19:10;15.10;99.90
18406;DHT22;9329;48.720;9.588;2022-09-25T03:21:37;15.40;99.90
18406;DHT22;9329;48.720;9.588;2022-09-25T03:24:04;15.80;99.90
18406;DHT22;9329;48.720;9.588;2022-09-25T03:26:31;16.10;99.90
18406;DHT22;9329;48.720;9.588;2022-09-25T03:28:59;16.10;99.90
18406;DHT22;9329;48.720;9.588;2022-09-25T03:31:27;16.40;99.90
18406;DHT22;9329;48.720;9.588;2022-09-25T03:33:55;15.90;99.90
18406;DHT22;9329;48.720;9.588;2022-09-25T03:36:26;15.70;99.90
18406;DHT22;9329;48.720;9.588;2022-09-25T03:38:54;15.80;99.90
18406;DHT22;9329;48.720;9.588;2022-09-25T03:41:25;16.10;99.90
18406;DHT22;9329;48.720;9.588;2022-09-25T03:43:52;16.20;99.90
18406;DHT22;9329;48.720;9.588;2022-09-25T03:46:23;15.80;99.90
18406;DHT22;9329;48.720;9.588;2022-09-25T03:48:51;15.80;99.90
18406;DHT22;9329;48.720;9.588;2022-09-25T03:51:18;15.70;99.90
18406;DHT22;9329;48.720;9.588;2022-09-25T03:53:47;16.10;99.90
18406;DHT22;9329;48.720;9.588;2022-09-25T03:56:17;16.20;99.90
18406;DHT22;9329;48.720;9.588;2022-09-25T03:58:45;15.70;99.90
18406;DHT22;9329;48.720;9.588;2022-09-25T04:01:13;15.90;99.90
18406;DHT22;9329;48.720;9.588;2022-09-25T04:03:41;16.20;99.90
18406;DHT22;9329;48.720;9.588;2022-09-25T04:06:12;15.80;99.90
18406;DHT22;9329;48.720;9.588;2022-09-25T04:08:44;15.70;99.90
18406;DHT22;9329;48.720;9.588;2022-09-25T04:11:13;15.60;99.90
18406;DHT22;9329;48.720;9.588;2022-09-25T04:13:40;15.40;99.90
18406;DHT22;9329;48.720;9.588;2022-09-25T04:16:08;15.80;99.90
18406;DHT22;9329;48.720;9.588;2022-09-25T04:18:36;16.10;99.90
18406;DHT22;9329;48.720;9.588;2022-09-25T04:21:06;15.60;99.90
18406;DHT22;9329;48.720;9.588;2022-09-25T04:23:34;15.70;99.90
18406;DHT22;9329;48.720;9.588;2022-09-25T04:26:01;15.90;99.90
18406;DHT22;9329;48.720;9.588;2022-09-25T04:28:30;15.70;99.90
18406;DHT22;9329;48.720;9.588;2022-09-25T04:30:58;15.50;99.90
18406;DHT22;9329;48.720;9.588;2022-09-25T04:33:25;15.50;99.90
18406;DHT22;9329;48.720;9.588;2022-09-25T04:36:09;15.70;99.90
18406;DHT22;9329;48.720;9.588;2022-09-25T04:38:36;15.70;99.90
18406;DHT22;9329;48.720;9.588;2022-09-25T04:41:03;15.90;99.90
18406;DHT22;9329;48.720;9.588;2022-09-25T04:43:32;15.70;99.90
18406;DHT22;9329;48.720;9.588;2022-09-25T04:46:00;15.60;99.90
18406;DHT22;9329;48.720;9.588;2022-09-25T04:48:28;15.60;99.90
18406;DHT22;9329;48.720;9.588;2022-09-25T04:50:55;15.60;99.90
18406;DHT22;9329;48.720;9.588;2022-09-25T04:53:23;15.40;99.90
18406;DHT22;9329;48.720;9.588;2022-09-25T04:55:51;15.40;99.90
18406;DHT22;9329;48.720;9.588;2022-09-25T04:58:19;15.10;99.90
18406;DHT22;9329;48.720;9.588;2022-09-25T05:00:47;14.50;99.90
18406;DHT22;9329;48.720;9.588;2022-09-25T05:03:15;14.50;99.90
18406;DHT22;9329;48.720;9.588;2022-09-25T05:05:42;14.60;99.90
18406;DHT22;9329;48.720;9.588;2022-09-25T05:08:09;15.10;99.90
18406;DHT22;9329;48.720;9.588;2022-09-25T05:10:37;15.70;99.90
18406;DHT22;9329;48.720;9.588;2022-09-25T05:13:05;15.40;99.90
18406;DHT22;9329;48.720;9.588;2022-09-25T05:15:33;15.20;99.90
18406;DHT22;9329;48.720;9.588;2022-09-25T05:18:03;15.20;99.90
18406;DHT22;9329;48.720;9.588;2022-09-25T05:20:31;15.00;99.90
18406;DHT22;9329;48.720;9.588;2022-09-25T05:22:58;14.90;99.90
18406;DHT22;9329;48.720;9.588;2022-09-25T05:25:26;15.20;99.90
18406;DHT22;9329;48.720;9.588;2022-09-25T05:27:53;15.30;99.90
18406;DHT22;9329;48.720;9.588;2022-09-25T05:30:23;15.60;99.90
18406;DHT22;9329;48.720;9.588;2022-09-25T05:32:50;15.10;99.90
18406;DHT22;9329;48.720;9.588;2022-09-25T05:35:21;14.40;99.90
18406;DHT22;9329;48.720;9.588;2022-09-25T05:37:49;13.80;99.90
18406;DHT22;9329;48.720;9.588;2022-09-25T05:40:17;13.80;99.90
18406;DHT22;9329;48.720;9.588;2022-09-25T05:42:46;13.90;99.90
18406;DHT22;9329;48.720;9.588;2022-09-25T05:45:14;14.00;99.90
18406;DHT22;9329;48.720;9.588;2022-09-25T05:47:41;14.10;99.90
18406;DHT22;9329;48.720;9.588;2022-09-25T05:50:10;14.10;99.90
18406;DHT22;9329;48.720;9.588;2022-09-25T05:52:39;14.10;99.90
18406;DHT22;9329;48.720;9.588;2022-09-25T05:55:08;14.20;99.90
18406;DHT22;9329;48.720;9.588;2022-09-25T05:57:36;14.40;99.90
18406;DHT22;9329;48.720;9.588;2022-09-25T06:00:05;14.30;99.90
18406;DHT22;9329;48.720;9.588;2022-09-25T06:02:39;14.10;99.90
18406;DHT22;9329;48.720;9.588;2022-09-25T06:05:07;14.00;99.90
18406;DHT22;9329;48.720;9.588;2022-09-25T06:07:41;14.40;99.90
18406;DHT22;9329;48.720;9.588;2022-09-25T06:10:08;14.50;99.90
18406;DHT22;9329;48.720;9.588;2022-09-25T06:12:36;14.60;99.90
18406;DHT22;9329;48.720;9.588;2022-09-25T06:15:03;14.90;99.90
18406;DHT22;9329;48.720;9.588;2022-09-25T06:17:31;14.70;99.90
18406;DHT22;9329;48.720;9.588;2022-09-25T06:19:58;14.30;99.90
18406;DHT22;9329;48.720;9.588;2022-09-25T06:22:25;14.30;99.90
18406;DHT22;9329;48.720;9.588;2022-09-25T06:24:53;14.30;99.90
18406;DHT22;9329;48.720;9.588;2022-09-25T06:27:23;14.40;99.90
18406;DHT22;9329;48.720;9.588;2022-09-25T06:29:50;14.60;99.90
18406;DHT22;9329;48.720;9.588;2022-09-25T06:32:17;14.80;99.90
18406;DHT22;9329;48.720;9.588;2022-09-25T06:34:46;15.60;99.90
18406;DHT22;9329;48.720;9.588;2022-09-25T06:37:13;15.20;99.90
18406;DHT22;9329;48.720;9.588;2022-09-25T06:39:40;15.50;99.90
18406;DHT22;9329;48.720;9.588;2022-09-25T06:42:08;15.60;99.90
18406;DHT22;9329;48.720;9.588;2022-09-25T06:44:35;14.90;99.90
18406;DHT22;9329;48.720;9.588;2022-09-25T06:47:06;15.00;99.90
18406;DHT22;9329;48.720;9.588;2022-09-25T06:49:37;15.50;99.90
18406;DHT22;9329;48.720;9.588;2022-09-25T06:52:04;16.00;99.90
18406;DHT22;9329;48.720;9.588;2022-09-25T06:54:31;16.10;99.90
18406;DHT22;9329;48.720;9.588;2022-09-25T06:57:01;15.80;99.90
18406;DHT22;9329;48.720;9.588;2022-09-25T06:59:29;16.20;99.90
18406;DHT22;9329;48.720;9.588;2022-09-25T07:01:56;16.30;99.90
18406;DHT22;9329;48.720;9.588;2022-09-25T07:04:43;16.10;99.90
18406;DHT22;9329;48.720;9.588;2022-09-25T07:07:09;16.20;99.90
18406;DHT22;9329;48.720;9.588;2022-09-25T07:09:38;16.70;99.90
18406;DHT22;9329;48.720;9.588;2022-09-25T07:12:11;16.50;99.90
18406;DHT22;9329;48.720;9.588;2022-09-25T07:14:40;16.40;99.90
18406;DHT22;9329;48.720;9.588;2022-09-25T07:17:11;15.90;99.90
18406;DHT22;9329;48.720;9.588;2022-09-25T07:19:39;16.40;99.90
18406;DHT22;9329;48.720;9.588;2022-09-25T07:22:06;16.50;99.90
18406;DHT22;9329;48.720;9.588;2022-09-25T07:24:34;16.70;99.90
18406;DHT22;9329;48.720;9.588;2022-09-25T07:27:02;16.90;99.90
18406;DHT22;9329;48.720;9.588;2022-09-25T07:29:30;16.60;99.90
18406;DHT22;9329;48.720;9.588;2022-09-25T07:31:58;17.40;99.90
18406;DHT22;9329;48.720;9.588;2022-09-25T07:34:29;17.20;99.90
18406;DHT22;9329;48.720;9.588;2022-09-25T07:36:57;17.50;99.90
18406;DHT22;9329;48.720;9.588;2022-09-25T07:39:24;18.10;99.90
18406;DHT22;9329;48.720;9.588;2022-09-25T07:41:53;18.00;99.90
18406;DHT22;9329;48.720;9.588;2022-09-25T07:44:21;17.30;99.90
18406;DHT22;9329;48.720;9.588;2022-09-25T07:46:48;17.30;99.90
18406;DHT22;9329;48.720;9.588;2022-09-25T07:49:18;17.90;99.90
18406;DHT22;9329;48.720;9.588;2022-09-25T07:51:48;17.60;99.90
18406;DHT22;9329;48.720;9.588;2022-09-25T07:54:16;17.70;99.90
18406;DHT22;9329;48.720;9.588;2022-09-25T07:56:43;18.10;99.90
18406;DHT22;9329;48.720;9.588;2022-09-25T07:59:10;17.80;99.90
18406;DHT22;9329;48.720;9.588;2022-09-25T08:01:37;17.50;99.90
18406;DHT22;9329;48.720;9.588;2022-09-25T08:04:04;17.70;99.90
18406;DHT22;9329;48.720;9.588;2022-09-25T08:06:34;18.00;99.90
18406;DHT22;9329;48.720;9.588;2022-09-25T08:09:06;18.80;99.90
18406;DHT22;9329;48.720;9.588;2022-09-25T08:11:33;19.30;99.90
18406;DHT22;9329;48.720;9.588;2022-09-25T08:14:01;18.60;99.90
18406;DHT22;9329;48.720;9.588;2022-09-25T08:16:28;18.90;99.90
18406;DHT22;9329;48.720;9.588;2022-09-25T08:18:57;19.00;99.90
18406;DHT22;9329;48.720;9.588;2022-09-25T08:21:24;19.00;99.90
18406;DHT22;9329;48.720;9.588;2022-09-25T08:23:53;18.60;99.90
18406;DHT22;9329;48.720;9.588;2022-09-25T08:26:22;18.40;99.90
18406;DHT22;9329;48.720;9.588;2022-09-25T08:28:49;18.30;99.90
18406;DHT22;9329;48.720;9.588;2022-09-25T08:31:17;18.10;99.90
18406;DHT22;9329;48.720;9.588;2022-09-25T08:33:44;17.40;99.90
18406;DHT22;9329;48.720;9.588;2022-09-25T08:36:12;18.20;99.90
18406;DHT22;9329;48.720;9.588;2022-09-25T08:38:39;18.60;99.90
18406;DHT22;9329;48.720;9.588;2022-09-25T08:41:14;18.40;99.90
18406;DHT22;9329;48.720;9.588;2022-09-25T08:43:53;18.40;99.90
18406;DHT22;9329;48.720;9.588;2022-09-25T08:46:30;18.50;99.90
18406;DHT22;9329;48.720;9.588;2022-09-25T08:49:17;18.60;99.90
18406;DHT22;9329;48.720;9.588;2022-09-25T08:51:48;18.70;99.90
18406;DHT22;9329;48.720;9.588;2022-09-25T08:54:20;18.30;99.90
18406;DHT22;9329;48.720;9.588;2022-09-25T08:56:50;18.20;99.90
18406;DHT22;9329;48.720;9.588;2022-09-25T08:59:23;18.50;99.90
18406;DHT22;9329;48.720;9.588;2022-09-25T09:01:54;19.00;99.90
18406;DHT22;9329;48.720;9.588;2022-09-25T09:04:25;19.00;99.90
18406;DHT22;9329;48.720;9.588;2022-09-25T09:07:02;19.60;99.90
18406;DHT22;9329;48.720;9.588;2022-09-25T09:09:34;19.70;99.90
18406;DHT22;9329;48.720;9.588;2022-09-25T09:12:11;19.40;99.90
18406;DHT22;9329;48.720;9.588;2022-09-25T09:14:43;19.50;99.90
18406;DHT22;9329;48.720;9.588;2022-09-25T09:17:15;19.80;99.90
18406;DHT22;9329;48.720;9.588;2022-09-25T09:19:46;20.40;99.90
18406;DHT22;9329;48.720;9.588;2022-09-25T09:22:16;21.10;99.90
18406;DHT22;9329;48.720;9.588;2022-09-25T09:24:54;20.50;99.90
18406;DHT22;9329;48.720;9.588;2022-09-25T09:27:31;19.70;99.90
18406;DHT22;9329;48.720;9.588;2022-09-25T09:30:12;19.50;99.90
18406;DHT22;9329;48.720;9.588;2022-09-25T09:33:00;20.00;99.90
18406;DHT22;9329;48.720;9.588;2022-09-25T09:35:38;18.90;99.90
18406;DHT22;9329;48.720;9.588;2022-09-25T09:38:15;19.10;99.90
18406;DHT22;9329;48.720;9.588;2022-09-25T09:41:00;18.80;99.90
18406;DHT22;9329;48.720;9.588;2022-09-25T09:43:40;19.50;99.90
18406;DHT22;9329;48.720;9.588;2022-09-25T09:46:15;19.10;99.90
18406;DHT22;9329;48.720;9.588;2022-09-25T09:48:52;18.80;99.90
18406;DHT22;9329;48.720;9.588;2022-09-25T09:51:25;18.60;99.90
18406;DHT22;9329;48.720;9.588;2022-09-25T09:53:55;18.20;99.90
18406;DHT22;9329;48.720;9.588;2022-09-25T09:56:30;18.80;99.90
18406;DHT22;9329;48.720;9.588;2022-09-25T09:59:01;19.40;99.90
18406;DHT22;9329;48.720;9.588;2022-09-25T10:01:35;20.20;99.90
18406;DHT22;9329;48.720;9.588;2022-09-25T10:04:05;20.40;99.90
18406;DHT22;9329;48.720;9.588;2022-09-25T10:06:38;21.50;99.90
18406;DHT22;9329;48.720;9.588;2022-09-25T10:09:13;21.90;99.90
18406;DHT22;9329;48.720;9.588;2022-09-25T10:11:41;21.40;99.90
18406;DHT22;9329;48.720;9.588;2022-09-25T10:14:19;20.80;99.90
18406;DHT22;9329;48.720;9.588;2022-09-25T10:16:49;22.20;99.90
18406;DHT22;9329;48.720;9.588;2022-09-25T10:19:18;20.50;99.90
18406;DHT22;9329;48.720;9.588;2022-09-25T10:21:48;20.40;99.90
18406;DHT22;9329;48.720;9.588;2022-09-25T10:24:46;20.30;99.90
18406;DHT22;9329;48.720;9.588;2022-09-25T10:27:24;19.70;99.90
18406;DHT22;9329;48.720;9.588;2022-09-25T10:30:15;20.50;99.90
18406;DHT22;9329;48.720;9.588;2022-09-25T10:32:55;21.60;99.90
18406;DHT22;9329;48.720;9.588;2022-09-25T10:35:25;22.10;99.90
18406;DHT22;9329;48.720;9.588;2022-09-25T10:37:54;22.30;99.90
18406;DHT22;9329;48.720;9.588;2022-09-25T10:40:24;22.40;99.90
18406;DHT22;9329;48.720;9.588;2022-09-25T10:43:04;22.70;99.90
18406;DHT22;9329;48.720;9.588;2022-09-25T10:45:34;22.60;99.90
18406;DHT22;9329;48.720;9.588;2022-09-25T10:48:28;22.00;99.90
18406;DHT22;9329;48.720;9.588;2022-09-25T10:51:14;22.30;99.90
18406;DHT22;9329;48.720;9.588;2022-09-25T10:53:43;21.60;99.90
18406;DHT22;9329;48.720;9.588;2022-09-25T10:56:14;21.70;99.90
18406;DHT22;9329;48.720;9.588;2022-09-25T10:58:44;21.90;99.90
18406;DHT22;9329;48.720;9.588;2022-09-25T11:01:15;21.70;99.90
18406;DHT22;9329;48.720;9.588;2022-09-25T11:03:48;21.60;99.90
18406;DHT22;9329;48.720;9.588;2022-09-25T11:06:19;21.70;99.90
18406;DHT22;9329;48.720;9.588;2022-09-25T11:08:53;21.90;99.90
18406;DHT22;9329;48.720;9.588;2022-09-25T11:11:21;21.50;99.90
18406;DHT22;9329;48.720;9.588;2022-09-25T11:13:53;20.70;99.90
18406;DHT22;9329;48.720;9.588;2022-09-25T11:16:42;20.70;99.90
18406;DHT22;9329;48.720;9.588;2022-09-25T11:19:12;19.30;99.90
18406;DHT22;9329;48.720;9.588;2022-09-25T11:21:46;19.30;99.90
18406;DHT22;9329;48.720;9.588;2022-09-25T11:24:19;19.20;99.90
18406;DHT22;9329;48.720;9.588;2022-09-25T11:26:54;19.30;99.90
18406;DHT22;9329;48.720;9.588;2022-09-25T11:29:28;19.30;99.90
18406;DHT22;9329;48.720;9.588;2022-09-25T11:32:05;19.00;99.90
18406;DHT22;9329;48.720;9.588;2022-09-25T11:34:50;18.70;99.90
18406;DHT22;9329;48.720;9.588;2022-09-25T11:37:29;19.60;99.90
18406;DHT22;9329;48.720;9.588;2022-09-25T11:40:03;19.40;99.90
18406;DHT22;9329;48.720;9.588;2022-09-25T11:42:54;19.90;99.90
18406;DHT22;9329;48.720;9.588;2022-09-25T11:45:29;19.70;99.90
18406;DHT22;9329;48.720;9.588;2022-09-25T11:48:15;19.00;99.90
18406;DHT22;9329;48.720;9.588;2022-09-25T11:50:55;18.90;99.90
18406;DHT22;9329;48.720;9.588;2022-09-25T11:53:30;19.30;99.90
18406;DHT22;9329;48.720;9.588;2022-09-25T11:56:12;20.00;99.90
18406;DHT22;9329;48.720;9.588;2022-09-25T11:58:55;20.30;99.90
18406;DHT22;9329;48.720;9.588;2022-09-25T12:01:30;19.80;99.90
18406;DHT22;9329;48.720;9.588;2022-09-25T12:04:31;18.90;99.90
18406;DHT22;9329;48.720;9.588;2022-09-25T12:07:16;18.90;99.90
18406;DHT22;9329;48.720;9.588;2022-09-25T12:09:55;19.30;99.90
18406;DHT22;9329;48.720;9.588;2022-09-25T12:12:32;18.60;99.90
18406;DHT22;9329;48.720;9.588;2022-09-25T12:15:11;18.30;99.90
18406;DHT22;9329;48.720;9.588;2022-09-25T12:17:46;17.60;99.90
18406;DHT22;9329;48.720;9.588;2022-09-25T12:20:24;17.50;99.90
18406;DHT22;9329;48.720;9.588;2022-09-25T12:23:02;17.60;99.90
18406;DHT22;9329;48.720;9.588;2022-09-25T12:25:41;16.90;99.90
18406;DHT22;9329;48.720;9.588;2022-09-25T12:28:25;16.70;99.90
18406;DHT22;9329;48.720;9.588;2022-09-25T12:31:00;16.80;99.90
18406;DHT22;9329;48.720;9.588;2022-09-25T12:33:37;17.10;99.90
18406;DHT22;9329;48.720;9.588;2022-09-25T12:36:13;16.90;99.90
18406;DHT22;9329;48.720;9.588;2022-09-25T12:38:46;16.70;99.90
18406;DHT22;9329;48.720;9.588;2022-09-25T12:41:22;16.30;99.90
18406;DHT22;9329;48.720;9.588;2022-09-25T12:43:53;17.00;99.90
18406;DHT22;9329;48.720;9.588;2022-09-25T12:46:27;17.40;99.90
18406;DHT22;9329;48.720;9.588;2022-09-25T12:49:01;17.50;99.90
18406;DHT22;9329;48.720;9.588;2022-09-25T12:51:37;17.40;99.90
18406;DHT22;9329;48.720;9.588;2022-09-25T12:54:14;17.10;99.90
18406;DHT22;9329;48.720;9.588;2022-09-25T12:56:50;17.40;99.90
18406;DHT22;9329;48.720;9.588;2022-09-25T12:59:22;17.70;99.90
18406;DHT22;9329;48.720;9.588;2022-09-25T13:01:56;17.80;99.90
18406;DHT22;9329;48.720;9.588;2022-09-25T13:04:53;18.20;99.90
18406;DHT22;9329;48.720;9.588;2022-09-25T13:07:28;19.00;99.90
18406;DHT22;9329;48.720;9.588;2022-09-25T13:09:59;20.20;99.90
18406;DHT22;9329;48.720;9.588;2022-09-25T13:12:32;20.60;99.90
18406;DHT22;9329;48.720;9.588;2022-09-25T13:15:03;20.60;99.90
18406;DHT22;9329;48.720;9.588;2022-09-25T13:17:34;21.30;99.90
18406;DHT22;9329;48.720;9.588;2022-09-25T13:23:12;21.60;99.90
18406;DHT22;9329;48.720;9.588;2022-09-25T13:25:41;21.20;99.90
18406;DHT22;9329;48.720;9.588;2022-09-25T13:28:17;21.00;99.90
18406;DHT22;9329;48.720;9.588;2022-09-25T13:31:04;21.60;99.90
18406;DHT22;9329;48.720;9.588;2022-09-25T13:33:37;22.50;99.90
18406;DHT22;9329;48.720;9.588;2022-09-25T13:36:25;22.20;99.90
18406;DHT22;9329;48.720;9.588;2022-09-25T13:38:57;22.30;99.90
18406;DHT22;9329;48.720;9.588;2022-09-25T13:41:48;22.60;99.90
18406;DHT22;9329;48.720;9.588;2022-09-25T13:47:54;22.20;99.90
18406;DHT22;9329;48.720;9.588;2022-09-25T13:50:45;21.50;99.90
18406;DHT22;9329;48.720;9.588;2022-09-25T13:53:28;20.80;99.90
18406;DHT22;9329;48.720;9.588;2022-09-25T13:56:23;20.70;99.90
18406;DHT22;9329;48.720;9.588;2022-09-25T14:01:56;19.80;99.90
18406;DHT22;9329;48.720;9.588;2022-09-25T14:04:30;20.10;99.90
18406;DHT22;9329;48.720;9.588;2022-09-25T14:07:16;19.90;99.90
18406;DHT22;9329;48.720;9.588;2022-09-25T14:09:46;19.90;99.90
18406;DHT22;9329;48.720;9.588;2022-09-25T14:12:23;19.70;99.90
18406;DHT22;9329;48.720;9.588;2022-09-25T14:14:56;20.10;99.90
18406;DHT22;9329;48.720;9.588;2022-09-25T14:17:27;19.80;99.90
18406;DHT22;9329;48.720;9.588;2022-09-25T14:19:58;19.80;99.90
18406;DHT22;9329;48.720;9.588;2022-09-25T14:22:34;19.60;99.90
18406;DHT22;9329;48.720;9.588;2022-09-25T14:25:26;19.70;99.90
18406;DHT22;9329;48.720;9.588;2022-09-25T14:27:54;19.60;99.90
18406;DHT22;9329;48.720;9.588;2022-09-25T14:30:21;20.00;99.90
18406;DHT22;9329;48.720;9.588;2022-09-25T14:33:14;20.20;99.90
18406;DHT22;9329;48.720;9.588;2022-09-25T14:35:50;20.30;99.90
18406;DHT22;9329;48.720;9.588;2022-09-25T14:41:49;20.00;99.90
18406;DHT22;9329;48.720;9.588;2022-09-25T14:44:38;20.70;99.90
18406;DHT22;9329;48.720;9.588;2022-09-25T14:47:10;20.30;99.90
18406;DHT22;9329;48.720;9.588;2022-09-25T14:49:42;20.30;99.90
18406;DHT22;9329;48.720;9.588;2022-09-25T14:52:14;20.00;99.90
18406;DHT22;9329;48.720;9.588;2022-09-25T14:54:44;20.10;99.90
18406;DHT22;9329;48.720;9.588;2022-09-25T14:57:15;19.50;99.90
18406;DHT22;9329;48.720;9.588;2022-09-25T14:59:48;19.40;99.90
18406;DHT22;9329;48.720;9.588;2022-09-25T15:02:18;18.50;99.90
18406;DHT22;9329;48.720;9.588;2022-09-25T15:04:47;19.20;99.90
18406;DHT22;9329;48.720;9.588;2022-09-25T15:07:17;19.40;99.90
18406;DHT22;9329;48.720;9.588;2022-09-25T15:09:47;19.60;99.90
18406;DHT22;9329;48.720;9.588;2022-09-25T15:12:18;19.50;99.90
18406;DHT22;9329;48.720;9.588;2022-09-25T15:15:05;19.90;99.90
18406;DHT22;9329;48.720;9.588;2022-09-25T15:17:36;19.70;99.90
18406;DHT22;9329;48.720;9.588;2022-09-25T15:20:05;19.40;99.90
18406;DHT22;9329;48.720;9.588;2022-09-25T15:22:35;19.70;99.90
18406;DHT22;9329;48.720;9.588;2022-09-25T15:25:05;19.90;99.90
18406;DHT22;9329;48.720;9.588;2022-09-25T15:27:34;20.10;99.90
18406;DHT22;9329;48.720;9.588;2022-09-25T15:30:15;20.20;99.90
18406;DHT22;9329;48.720;9.588;2022-09-25T15:32:45;20.30;99.90
18406;DHT22;9329;48.720;9.588;2022-09-25T15:35:17;20.10;99.90
18406;DHT22;9329;48.720;9.588;2022-09-25T15:37:47;19.70;99.90
18406;DHT22;9329;48.720;9.588;2022-09-25T15:40:20;19.70;99.90
18406;DHT22;9329;48.720;9.588;2022-09-25T15:42:50;19.60;99.90
18406;DHT22;9329;48.720;9.588;2022-09-25T15:45:43;19.80;99.90
18406;DHT22;9329;48.720;9.588;2022-09-25T15:48:20;20.00;99.90
18406;DHT22;9329;48.720;9.588;2022-09-25T15:50:55;20.20;99.90
18406;DHT22;9329;48.720;9.588;2022-09-25T15:53:26;20.10;99.90
18406;DHT22;9329;48.720;9.588;2022-09-25T15:56:15;20.30;99.90
18406;DHT22;9329;48.720;9.588;2022-09-25T15:58:44;20.00;99.90
18406;DHT22;9329;48.720;9.588;2022-09-25T16:01:17;19.90;99.90
18406;DHT22;9329;48.720;9.588;2022-09-25T16:04:05;20.10;99.90
18406;DHT22;9329;48.720;9.588;2022-09-25T16:06:50;20.10;99.90
18406;DHT22;9329;48.720;9.588;2022-09-25T16:09:29;19.70;99.90
18406;DHT22;9329;48.720;9.588;2022-09-25T16:12:20;19.20;99.90
18406;DHT22;9329;48.720;9.588;2022-09-25T16:14:48;19.10;99.90
18406;DHT22;9329;48.720;9.588;2022-09-25T16:17:22;18.70;99.90
18406;DHT22;9329;48.720;9.588;2022-09-25T16:20:07;18.30;99.90
18406;DHT22;9329;48.720;9.588;2022-09-25T16:22:39;17.90;99.90
18406;DHT22;9329;48.720;9.588;2022-09-25T16:25:16;18.20;99.90
18406;DHT22;9329;48.720;9.588;2022-09-25T16:27:46;18.10;99.90
18406;DHT22;9329;48.720;9.588;2022-09-25T16:30:16;18.40;99.90
18406;DHT22;9329;48.720;9.588;2022-09-25T16:32:46;18.30;99.90
18406;DHT22;9329;48.720;9.588;2022-09-25T16:35:22;17.50;99.90